01:12 Rennrad Innsbruck ARZ - Radweg - Voels - Hatting - Pettnau - Moetz
Ort Innsbruck Datum 22.06.2016 16:18:09
Kategorie Rennrad
Distanz 40,16 Kilometer Steigung 158,0 Meter Gefälle -92,0 Meter
Gesamt Zeit 01:12:54 Aktiv 01:11:57 Pause 00:00:57
Durchs. Tempo 33,5 km/h Tempo max. 48,0 km/h Tempo min. 21,4 km/h
Kalorien 0 Durchs. HF 139 BPM HF max. 162 BPM
Wetter 33 °C Clear Min/Max: 31,7 °C/33,5 °C; Druck: 1018,2 mbar; Rel. Feuchte: 33,5%; Taupunkt: 14,4 °C; Windgeschwindigkeit: 4,4 km/h; Niederschlag: 0,0mm
Ausrüstung Bontrager - RXL Road
Continental - Grand Prix 4000 S II 25-622
Poison - Rennrad
Shimano - HG CN-7901 Dura Ace
Notiz Innsbruck ARZ - Radweg - Voels - Hatting - Pettnau - Moetz ... trocken, ungewohnt warm, bis Pettnau leichter Rückenwind, dann bis Telfs eher Gegenwind, ab dort wieder Rückenwind - locker bis flott ... garmin connect
Splits
Distanz (km) Gesamt Zeit Split Zeit Split Tempo Split Tempo Höhenprofil (m)
1,00 00:02:08 00:02:08 00:02:08 28,0 -3,78
2,00 00:04:03 00:01:54 00:01:55 31,3 -3,69
3,00 00:05:59 00:01:56 00:01:56 30,9 2,17
4,00 00:07:52 00:01:53 00:01:53 31,8 1,78
5,00 00:09:44 00:01:51 00:01:52 32,2 3,62
6,00 00:11:44 00:01:59 00:02:00 30,0 10,06
7,00 00:13:26 00:01:42 00:01:42 35,2 -4,60
8,00 00:15:14 00:01:47 00:01:48 33,5 1,35
9,00 00:16:58 00:01:44 00:01:44 34,5 3,43
10,00 00:18:59 00:02:01 00:02:01 29,7 15,50
11,00 00:21:03 00:02:03 00:02:03 29,2 11,54
12,00 00:22:36 00:01:33 00:01:34 38,5 -17,23
13,00 00:24:09 00:01:32 00:01:32 39,1 -6,41
14,00 00:25:57 00:01:48 00:01:48 33,3 5,46
15,00 00:27:39 00:01:42 00:01:43 35,1 0,60
16,00 00:29:22 00:01:42 00:01:43 35,1 1,16
17,00 00:31:08 00:01:45 00:01:46 34,0 5,43
18,00 00:33:11 00:02:02 00:02:03 29,3 13,59
19,00 00:34:53 00:01:42 00:01:42 35,2 -7,85
20,00 00:36:21 00:01:28 00:01:29 40,6 -6,28
21,00 00:38:13 00:01:51 00:01:51 32,3 3,17
22,00 00:39:56 00:01:43 00:01:43 34,9 0,99
23,00 00:41:42 00:01:45 00:01:46 34,0 0,00
24,00 00:43:30 00:01:48 00:01:49 33,1 8,28
25,00 00:45:19 00:01:48 00:01:49 33,1 -3,20
26,00 00:47:08 00:01:48 00:01:48 33,2 3,25
27,00 00:49:03 00:01:55 00:01:56 31,1 1,13
28,00 00:50:54 00:01:50 00:01:51 32,5 -0,57
29,00 00:52:44 00:01:50 00:01:50 32,7 6,63
30,00 00:54:43 00:01:58 00:01:58 30,4 -2,44
31,00 00:56:15 00:01:32 00:01:32 39,0 0,95
32,00 00:57:52 00:01:36 00:01:37 37,2 2,60
33,00 00:59:31 00:01:39 00:01:39 36,3 7,18
34,00 01:01:13 00:01:41 00:01:42 35,5 1,36
35,00 01:02:52 00:01:39 00:01:40 36,2 1,80
36,00 01:04:33 00:01:40 00:01:40 35,8 -1,74
37,00 01:06:14 00:01:41 00:01:41 35,5 3,32
38,00 01:07:58 00:01:43 00:01:44 34,7 1,47
39,00 01:09:39 00:01:41 00:01:41 35,5 0,16
40,00 01:11:31 00:01:51 00:01:52 32,2 8,29
40,18 01:11:57 00:00:25 00:02:24 25,0 1,29